createdAt,value
2022-11-07T00:02:14.766Z,7.50
2022-11-07T00:05:15.569Z,7.20
2022-11-07T00:08:16.464Z,7.00
2022-11-07T00:11:17.708Z,6.80
2022-11-07T00:14:18.839Z,6.90
2022-11-07T00:17:19.918Z,7.00
2022-11-07T00:20:20.761Z,7.00
2022-11-07T00:23:21.674Z,6.90
2022-11-07T00:26:22.507Z,6.90
2022-11-07T00:29:23.228Z,6.90
2022-11-07T00:32:24.154Z,6.90
2022-11-07T00:35:24.933Z,6.80
2022-11-07T00:38:26.661Z,6.70
2022-11-07T00:41:28.412Z,6.80
2022-11-07T00:44:29.519Z,6.80
2022-11-07T00:47:30.615Z,6.80
2022-11-07T00:50:31.536Z,6.80
2022-11-07T00:53:32.439Z,6.70
2022-11-07T00:56:33.090Z,6.70
2022-11-07T00:59:34.289Z,6.70
2022-11-07T01:02:35.181Z,6.80
2022-11-07T01:05:37.326Z,6.80
2022-11-07T01:08:38.073Z,6.70
2022-11-07T01:11:40.348Z,6.80
2022-11-07T01:14:41.392Z,6.70
2022-11-07T01:17:42.383Z,6.60
2022-11-07T01:20:43.238Z,6.60
2022-11-07T01:23:44.084Z,6.90
2022-11-07T01:26:51.964Z,7.00
2022-11-07T01:29:52.867Z,7.00
2022-11-07T01:32:54.034Z,7.10
2022-11-07T01:35:54.841Z,7.10
2022-11-07T01:38:55.473Z,7.20
2022-11-07T01:41:56.450Z,7.30
2022-11-07T01:44:59.945Z,7.30
2022-11-07T01:48:03.621Z,7.30
2022-11-07T01:51:06.397Z,7.40
2022-11-07T01:54:08.271Z,7.40
2022-11-07T01:57:20.610Z,7.40
2022-11-07T02:00:24.315Z,7.30
2022-11-07T02:03:26.431Z,7.40
2022-11-07T02:06:43.892Z,7.50
2022-11-07T02:09:45.432Z,7.60
2022-11-07T02:12:46.461Z,7.60
2022-11-07T02:15:47.473Z,7.50
2022-11-07T02:18:48.487Z,7.60
2022-11-07T02:22:07.305Z,7.60
2022-11-07T02:25:16.860Z,7.50
2022-11-07T02:28:19.610Z,7.40
2022-11-07T02:31:20.608Z,7.30
2022-11-07T02:34:21.318Z,7.10
2022-11-07T02:37:30.119Z,7.20
2022-11-07T02:40:32.250Z,7.50
2022-11-07T02:43:37.626Z,8.00
2022-11-07T02:46:39.765Z,8.20
2022-11-07T02:49:41.282Z,8.20
2022-11-07T02:52:42.840Z,8.00
2022-11-07T02:55:43.511Z,7.70
2022-11-07T02:58:45.047Z,7.70
2022-11-07T03:01:46.132Z,7.90
2022-11-07T03:04:49.201Z,7.90
2022-11-07T03:07:50.639Z,8.00
2022-11-07T03:10:51.500Z,8.10
2022-11-07T03:13:52.254Z,8.00
2022-11-07T03:16:52.890Z,7.80
2022-11-07T03:19:54.448Z,7.50
2022-11-07T03:22:55.540Z,8.40
2022-11-07T03:25:56.229Z,8.60
2022-11-07T03:28:59.382Z,8.40
2022-11-07T03:32:00.140Z,8.30
2022-11-07T03:35:01.229Z,8.20
2022-11-07T03:38:02.119Z,8.30
2022-11-07T03:41:03.280Z,8.10
2022-11-07T03:44:04.290Z,7.40
2022-11-07T03:47:04.987Z,7.20
2022-11-07T03:50:09.339Z,7.00
2022-11-07T03:53:10.600Z,7.00
2022-11-07T03:56:12.798Z,7.10
2022-11-07T03:59:13.635Z,7.00
2022-11-07T04:02:15.145Z,7.10
2022-11-07T04:05:16.463Z,7.20
2022-11-07T04:08:17.556Z,7.50
2022-11-07T04:11:36.855Z,7.60
2022-11-07T04:14:56.015Z,7.60
2022-11-07T04:17:56.976Z,7.60
2022-11-07T04:20:57.710Z,7.70
2022-11-07T04:23:58.526Z,7.40
2022-11-07T04:27:18.136Z,7.10
2022-11-07T04:30:19.678Z,6.90
2022-11-07T04:33:20.753Z,6.90
2022-11-07T04:36:21.932Z,6.90
2022-11-07T04:39:22.847Z,6.80
2022-11-07T04:42:23.718Z,6.80
2022-11-07T04:45:24.496Z,6.60
2022-11-07T04:48:25.212Z,6.40
2022-11-07T04:51:26.023Z,6.20
2022-11-07T04:54:26.800Z,6.10
2022-11-07T04:57:27.698Z,6.00
2022-11-07T05:00:28.892Z,6.10
2022-11-07T05:03:29.943Z,6.10
2022-11-07T05:06:36.610Z,6.20
2022-11-07T05:09:37.775Z,6.30
2022-11-07T05:12:38.601Z,6.40
2022-11-07T05:15:40.195Z,6.40
2022-11-07T05:18:41.119Z,6.50
2022-11-07T05:21:42.018Z,6.70
2022-11-07T05:24:42.757Z,6.80
2022-11-07T05:27:43.824Z,6.80
2022-11-07T05:30:46.477Z,6.90
2022-11-07T05:33:47.341Z,6.90
2022-11-07T05:36:48.202Z,6.80
2022-11-07T05:39:52.431Z,7.00
2022-11-07T05:43:03.864Z,7.40
2022-11-07T05:46:06.307Z,7.60
2022-11-07T05:49:07.317Z,7.40
2022-11-07T05:52:08.662Z,7.30
2022-11-07T05:55:09.594Z,7.10
2022-11-07T05:58:12.268Z,6.80
2022-11-07T06:01:13.064Z,7.00
2022-11-07T06:04:13.711Z,7.30
2022-11-07T06:07:15.110Z,7.30
2022-11-07T06:10:16.256Z,7.20
2022-11-07T06:13:17.811Z,6.90
2022-11-07T06:16:18.976Z,7.00
2022-11-07T06:19:20.293Z,7.30
2022-11-07T06:22:21.060Z,7.20
2022-11-07T06:25:22.024Z,7.10
2022-11-07T06:28:22.973Z,6.80
2022-11-07T06:31:24.253Z,7.10
2022-11-07T06:34:25.526Z,7.20
2022-11-07T06:37:27.516Z,7.40
2022-11-07T06:40:28.517Z,7.40
2022-11-07T06:43:33.632Z,7.20
2022-11-07T06:46:34.689Z,7.00
2022-11-07T06:49:35.546Z,6.90
2022-11-07T06:52:36.246Z,6.90
2022-11-07T06:55:38.767Z,6.90
2022-11-07T06:58:39.661Z,7.10
2022-11-07T07:01:40.676Z,7.30
2022-11-07T07:04:42.488Z,7.40
2022-11-07T07:07:43.405Z,7.30
2022-11-07T07:10:45.852Z,7.50
2022-11-07T07:13:46.853Z,7.50
2022-11-07T07:16:47.868Z,7.80
2022-11-07T07:19:48.998Z,7.90
2022-11-07T07:22:56.048Z,8.10
2022-11-07T07:26:00.164Z,8.30
2022-11-07T07:29:03.931Z,8.50
2022-11-07T07:32:05.178Z,8.70
2022-11-07T07:35:06.889Z,8.90
2022-11-07T07:38:42.004Z,9.00
2022-11-07T07:41:42.795Z,9.30
2022-11-07T07:44:43.521Z,9.80
2022-11-07T07:47:45.264Z,10.20
2022-11-07T07:50:49.953Z,10.70
2022-11-07T07:53:51.115Z,11.00
2022-11-07T07:56:51.749Z,11.30
2022-11-07T07:59:52.743Z,11.80
2022-11-07T08:03:06.611Z,12.20
2022-11-07T08:06:08.003Z,12.80
2022-11-07T08:09:09.207Z,15.40
2022-11-07T08:12:10.029Z,16.70
2022-11-07T08:15:12.676Z,16.60
2022-11-07T08:18:13.802Z,17.50
2022-11-07T08:21:14.571Z,18.90
2022-11-07T08:24:15.394Z,19.10
2022-11-07T08:27:16.539Z,19.40
2022-11-07T08:30:18.280Z,15.70
2022-11-07T08:33:19.496Z,14.90
2022-11-07T08:36:20.682Z,14.20
2022-11-07T08:39:21.662Z,14.10
2022-11-07T08:42:22.881Z,14.50
2022-11-07T08:45:23.998Z,14.50
2022-11-07T08:48:25.093Z,15.70
2022-11-07T08:51:26.209Z,15.60
2022-11-07T08:54:28.996Z,14.70
2022-11-07T08:57:29.818Z,13.70
2022-11-07T09:00:31.761Z,13.30
2022-11-07T09:03:56.575Z,14.60
2022-11-07T09:06:57.561Z,17.40
2022-11-07T09:09:58.434Z,21.00
2022-11-07T09:12:59.234Z,21.80
2022-11-07T09:16:03.072Z,21.00
2022-11-07T09:19:03.690Z,19.40
2022-11-07T09:22:04.406Z,19.70
2022-11-07T09:25:06.338Z,21.20
2022-11-07T09:28:07.727Z,22.90
2022-11-07T09:31:09.083Z,22.40
2022-11-07T09:34:10.158Z,21.60
2022-11-07T09:37:11.300Z,19.50
2022-11-07T09:40:43.566Z,18.90
2022-11-07T09:44:14.953Z,18.30
2022-11-07T09:47:37.992Z,18.20
2022-11-07T09:50:43.553Z,18.50
2022-11-07T09:53:55.203Z,21.20
2022-11-07T09:56:59.652Z,20.80
2022-11-07T10:00:20.080Z,17.70
2022-11-07T10:03:20.740Z,18.70
2022-11-07T10:06:49.400Z,21.10
2022-11-07T10:10:09.898Z,23.50
2022-11-07T10:13:40.769Z,23.40
2022-11-07T10:16:59.772Z,22.40
2022-11-07T10:20:25.338Z,21.90
2022-11-07T10:23:57.716Z,20.50
2022-11-07T10:26:58.623Z,21.30
2022-11-07T10:30:01.601Z,22.00
2022-11-07T10:33:32.259Z,22.40
2022-11-07T10:36:34.251Z,22.60
2022-11-07T10:39:35.676Z,21.70
2022-11-07T10:42:37.181Z,21.30
2022-11-07T10:45:39.705Z,21.70
2022-11-07T10:48:59.656Z,21.20
2022-11-07T10:52:19.143Z,19.80
2022-11-07T10:55:20.484Z,18.10
2022-11-07T10:58:34.925Z,18.20
2022-11-07T11:01:35.893Z,18.60
2022-11-07T11:04:38.615Z,19.70
2022-11-07T11:07:41.658Z,21.60
2022-11-07T11:10:43.245Z,22.70
2022-11-07T11:13:43.900Z,22.70
2022-11-07T11:16:44.983Z,23.40
2022-11-07T11:19:53.578Z,23.60
2022-11-07T11:22:54.996Z,23.80
2022-11-07T11:26:09.444Z,23.10
2022-11-07T11:29:47.833Z,21.90
2022-11-07T11:33:12.120Z,22.60
2022-11-07T11:36:31.887Z,22.60
2022-11-07T11:40:04.856Z,22.50
2022-11-07T11:43:11.581Z,23.10
2022-11-07T11:46:28.908Z,23.60
2022-11-07T11:49:48.994Z,23.10
2022-11-07T11:52:50.268Z,23.50
2022-11-07T11:56:24.437Z,22.20
2022-11-07T12:00:06.134Z,21.70
2022-11-07T12:03:57.060Z,20.40
2022-11-07T12:07:29.865Z,19.30
2022-11-07T12:10:58.411Z,18.70
2022-11-07T12:14:24.124Z,17.60
2022-11-07T12:17:52.789Z,17.40
2022-11-07T12:21:12.493Z,17.30
2022-11-07T12:25:03.645Z,17.30
2022-11-07T12:28:41.054Z,16.90
2022-11-07T12:31:47.922Z,16.80
2022-11-07T12:35:17.072Z,16.90
2022-11-07T12:38:42.497Z,16.80
2022-11-07T12:42:26.448Z,16.60
2022-11-07T12:46:07.130Z,16.70
2022-11-07T12:49:44.003Z,16.50
2022-11-07T12:53:01.940Z,16.50
2022-11-07T12:56:29.699Z,16.50
2022-11-07T12:59:33.076Z,16.60
2022-11-07T13:02:55.110Z,16.30
2022-11-07T13:06:22.749Z,16.50
2022-11-07T13:09:50.635Z,16.60
2022-11-07T13:13:18.107Z,16.40
2022-11-07T13:16:35.029Z,16.60
2022-11-07T13:19:40.838Z,16.40
2022-11-07T13:22:41.984Z,16.50
2022-11-07T13:25:43.599Z,16.70
2022-11-07T13:29:00.963Z,16.80
2022-11-07T13:32:11.698Z,16.90
2022-11-07T13:35:35.340Z,16.90
2022-11-07T13:38:49.203Z,16.40
2022-11-07T13:41:50.719Z,16.40
2022-11-07T13:44:56.909Z,16.90
2022-11-07T13:48:03.653Z,16.80
2022-11-07T13:51:26.502Z,16.40
2022-11-07T13:54:44.360Z,16.40
2022-11-07T13:57:55.778Z,16.30
2022-11-07T14:01:10.644Z,16.30
2022-11-07T14:04:17.313Z,16.80
2022-11-07T14:07:24.851Z,17.10
2022-11-07T14:10:47.222Z,18.00
2022-11-07T14:14:00.626Z,18.00
2022-11-07T14:17:01.865Z,18.20
2022-11-07T14:20:21.336Z,18.10
2022-11-07T14:23:26.212Z,17.50
2022-11-07T14:26:33.687Z,17.30
2022-11-07T14:29:34.943Z,17.10
2022-11-07T14:32:35.921Z,17.10
2022-11-07T14:35:48.251Z,17.20
2022-11-07T14:39:07.940Z,16.90
2022-11-07T14:42:19.362Z,16.40
2022-11-07T14:45:56.602Z,16.20
2022-11-07T14:48:45.516Z,16.20
2022-11-07T14:51:46.337Z,16.20
2022-11-07T14:54:50.619Z,15.90
2022-11-07T14:57:52.651Z,15.50
2022-11-07T15:00:59.213Z,15.30
2022-11-07T15:04:25.245Z,15.10
2022-11-07T15:07:34.213Z,15.00
2022-11-07T15:10:39.938Z,14.70
2022-11-07T15:13:42.402Z,14.40
2022-11-07T15:16:49.586Z,14.10
2022-11-07T15:20:06.610Z,13.90
2022-11-07T15:23:13.433Z,13.70
2022-11-07T15:26:23.369Z,13.60
2022-11-07T15:29:24.085Z,13.60
2022-11-07T15:32:32.637Z,13.50
2022-11-07T15:35:48.994Z,13.30
2022-11-07T15:38:51.870Z,13.00
2022-11-07T15:41:52.938Z,12.70
2022-11-07T15:44:53.643Z,12.40
2022-11-07T15:47:54.539Z,12.10
2022-11-07T15:50:55.572Z,11.90
2022-11-07T15:53:56.440Z,11.80
2022-11-07T15:57:05.231Z,11.60
2022-11-07T16:00:07.622Z,11.50
2022-11-07T16:03:17.417Z,11.40
2022-11-07T16:06:30.814Z,11.50
2022-11-07T16:09:33.282Z,11.30
2022-11-07T16:12:34.344Z,11.20
2022-11-07T16:15:35.659Z,11.30
2022-11-07T16:18:44.056Z,11.30
2022-11-07T16:21:47.988Z,11.30
2022-11-07T16:24:49.170Z,11.30
2022-11-07T16:27:59.319Z,11.20
2022-11-07T16:31:01.895Z,11.30
2022-11-07T16:34:02.817Z,11.40
2022-11-07T16:37:03.645Z,11.40
2022-11-07T16:40:08.678Z,11.50
2022-11-07T16:43:10.066Z,11.50
2022-11-07T16:46:20.516Z,11.50
2022-11-07T16:49:32.673Z,11.60
2022-11-07T16:52:33.654Z,11.70
2022-11-07T16:55:34.443Z,11.60
2022-11-07T16:58:38.311Z,11.60
2022-11-07T17:01:39.034Z,11.50
2022-11-07T17:04:40.240Z,11.30
2022-11-07T17:07:41.146Z,11.00
2022-11-07T17:10:42.331Z,10.60
2022-11-07T17:13:44.948Z,10.30
2022-11-07T17:16:48.660Z,10.30
2022-11-07T17:19:49.499Z,10.20
2022-11-07T17:22:50.375Z,10.30
2022-11-07T17:25:54.304Z,10.30
2022-11-07T17:28:56.332Z,10.20
2022-11-07T17:31:57.165Z,10.30
2022-11-07T17:35:25.626Z,10.70
2022-11-07T17:38:19.630Z,10.90
2022-11-07T17:41:22.188Z,10.90
2022-11-07T17:44:23.875Z,11.00
2022-11-07T17:47:30.952Z,11.00
2022-11-07T17:50:32.082Z,11.10
2022-11-07T17:53:33.203Z,11.00
2022-11-07T17:56:34.689Z,11.00
2022-11-07T17:59:35.959Z,11.00
2022-11-07T18:02:36.978Z,11.00
2022-11-07T18:05:38.068Z,11.00
2022-11-07T18:08:51.744Z,10.90
2022-11-07T18:11:53.609Z,10.90
2022-11-07T18:14:54.630Z,10.80
2022-11-07T18:17:55.296Z,10.80
2022-11-07T18:20:56.530Z,10.80
2022-11-07T18:23:58.157Z,10.80
2022-11-07T18:26:59.351Z,10.70
2022-11-07T18:30:00.559Z,10.60
2022-11-07T18:33:02.838Z,10.60
2022-11-07T18:36:10.464Z,10.50
2022-11-07T18:39:18.064Z,10.50
2022-11-07T18:42:19.237Z,10.10
2022-11-07T18:45:19.931Z,9.90
2022-11-07T18:48:21.624Z,9.90
2022-11-07T18:51:24.879Z,9.90
2022-11-07T18:54:26.398Z,10.00
2022-11-07T18:57:27.774Z,10.00
2022-11-07T19:00:28.641Z,10.00
2022-11-07T19:03:29.553Z,9.90
2022-11-07T19:06:31.803Z,9.90
2022-11-07T19:09:33.664Z,10.00
2022-11-07T19:12:34.646Z,10.00
2022-11-07T19:15:39.772Z,10.00
2022-11-07T19:18:43.070Z,9.90
2022-11-07T19:21:46.195Z,9.90
2022-11-07T19:24:47.046Z,9.80
2022-11-07T19:27:48.059Z,9.80
2022-11-07T19:30:49.355Z,9.70
2022-11-07T19:33:50.379Z,9.60
2022-11-07T19:36:51.528Z,9.50
2022-11-07T19:39:52.774Z,9.40
2022-11-07T19:42:54.007Z,9.30
2022-11-07T19:45:54.819Z,9.20
2022-11-07T19:48:56.642Z,9.20
2022-11-07T19:51:57.604Z,9.20
2022-11-07T19:54:59.063Z,9.30
2022-11-07T19:58:00.141Z,9.30
2022-11-07T20:01:01.293Z,9.40
2022-11-07T20:04:03.266Z,9.30
2022-11-07T20:07:04.818Z,9.30
2022-11-07T20:10:08.813Z,9.20
2022-11-07T20:13:09.894Z,9.10
2022-11-07T20:16:11.267Z,9.10
2022-11-07T20:19:12.105Z,9.10
2022-11-07T20:22:13.641Z,9.20
2022-11-07T20:25:14.921Z,9.10
2022-11-07T20:28:16.773Z,9.10
2022-11-07T20:31:34.623Z,9.00
2022-11-07T20:34:35.540Z,8.90
2022-11-07T20:37:36.892Z,8.90
2022-11-07T20:40:38.203Z,8.90
2022-11-07T20:43:40.485Z,8.90
2022-11-07T20:46:45.720Z,8.90
2022-11-07T20:49:46.405Z,8.80
2022-11-07T20:52:47.514Z,8.90
2022-11-07T20:55:48.285Z,8.80
2022-11-07T20:58:49.994Z,8.70
2022-11-07T21:01:51.396Z,8.60
2022-11-07T21:05:15.973Z,8.20
2022-11-07T21:08:13.201Z,7.80
2022-11-07T21:11:15.549Z,7.70
2022-11-07T21:14:16.158Z,7.70
2022-11-07T21:17:17.252Z,7.70
2022-11-07T21:20:18.517Z,7.60
2022-11-07T21:23:19.833Z,7.60
2022-11-07T21:26:31.989Z,7.60
2022-11-07T21:29:33.753Z,7.60
2022-11-07T21:32:35.376Z,7.60
2022-11-07T21:35:40.652Z,7.60
2022-11-07T21:38:42.008Z,7.80
2022-11-07T21:41:43.021Z,7.80
2022-11-07T21:44:43.846Z,7.80
2022-11-07T21:47:46.100Z,7.80
2022-11-07T21:50:47.461Z,7.80
2022-11-07T21:53:49.311Z,7.90
2022-11-07T21:56:50.673Z,7.70
2022-11-07T21:59:51.786Z,7.30
2022-11-07T22:02:52.626Z,7.00
2022-11-07T22:05:53.436Z,7.00
2022-11-07T22:08:54.806Z,6.90
2022-11-07T22:11:55.812Z,6.80
2022-11-07T22:14:56.982Z,6.70
2022-11-07T22:17:57.811Z,6.40
2022-11-07T22:20:59.422Z,6.10
2022-11-07T22:24:00.480Z,6.10
2022-11-07T22:27:01.562Z,6.00
2022-11-07T22:30:02.313Z,6.10
2022-11-07T22:33:03.041Z,6.00
2022-11-07T22:36:07.488Z,5.90
2022-11-07T22:39:08.530Z,6.00
2022-11-07T22:42:09.498Z,5.90
2022-11-07T22:45:10.623Z,5.90
2022-11-07T22:48:11.890Z,5.90
2022-11-07T22:51:20.029Z,5.90
2022-11-07T22:54:21.077Z,5.90
2022-11-07T22:57:22.344Z,5.80
2022-11-07T23:00:23.286Z,5.70
2022-11-07T23:03:24.569Z,5.60
2022-11-07T23:06:28.759Z,5.50
2022-11-07T23:09:30.351Z,5.50
2022-11-07T23:12:31.325Z,5.40
2022-11-07T23:15:32.996Z,5.40
2022-11-07T23:18:34.178Z,5.40
2022-11-07T23:21:35.916Z,5.30
2022-11-07T23:24:37.033Z,5.10
2022-11-07T23:27:38.506Z,5.20
2022-11-07T23:30:39.272Z,5.30
2022-11-07T23:33:40.967Z,5.20
2022-11-07T23:36:44.495Z,5.50
2022-11-07T23:39:45.748Z,5.40
2022-11-07T23:42:47.013Z,5.40
2022-11-07T23:46:06.192Z,5.50
2022-11-07T23:49:28.268Z,5.40
2022-11-07T23:52:29.450Z,5.30
2022-11-07T23:55:42.523Z,5.50
2022-11-07T23:59:02.588Z,5.60
